sensor_id;sensor_type;location;lat;lon;timestamp;P1;durP1;ratioP1;P2;durP2;ratioP2
14066;SDS011;7108;42.684;23.350;2022-12-18T00:02:21;214.77;;;76.60;;
14066;SDS011;7108;42.684;23.350;2022-12-18T00:04:47;196.90;;;74.17;;
14066;SDS011;7108;42.684;23.350;2022-12-18T00:07:12;192.43;;;75.63;;
14066;SDS011;7108;42.684;23.350;2022-12-18T00:09:38;236.27;;;76.03;;
14066;SDS011;7108;42.684;23.350;2022-12-18T00:12:03;215.47;;;73.90;;
14066;SDS011;7108;42.684;23.350;2022-12-18T00:14:29;248.27;;;78.83;;
14066;SDS011;7108;42.684;23.350;2022-12-18T00:16:54;205.60;;;76.87;;
14066;SDS011;7108;42.684;23.350;2022-12-18T00:19:20;207.83;;;76.80;;
14066;SDS011;7108;42.684;23.350;2022-12-18T00:21:46;197.30;;;77.63;;
14066;SDS011;7108;42.684;23.350;2022-12-18T00:24:11;200.77;;;77.83;;
14066;SDS011;7108;42.684;23.350;2022-12-18T00:26:37;210.93;;;76.53;;
14066;SDS011;7108;42.684;23.350;2022-12-18T00:29:06;226.88;;;79.65;;
14066;SDS011;7108;42.684;23.350;2022-12-18T00:31:41;219.55;;;78.60;;
14066;SDS011;7108;42.684;23.350;2022-12-18T00:34:09;242.32;;;80.53;;
14066;SDS011;7108;42.684;23.350;2022-12-18T00:36:36;239.55;;;78.32;;
14066;SDS011;7108;42.684;23.350;2022-12-18T00:39:03;218.70;;;77.13;;
14066;SDS011;7108;42.684;23.350;2022-12-18T00:41:30;233.20;;;79.38;;
14066;SDS011;7108;42.684;23.350;2022-12-18T00:44:14;185.75;;;72.72;;
14066;SDS011;7108;42.684;23.350;2022-12-18T00:46:42;203.05;;;73.40;;
14066;SDS011;7108;42.684;23.350;2022-12-18T00:49:08;216.63;;;77.43;;
14066;SDS011;7108;42.684;23.350;2022-12-18T00:51:34;233.82;;;77.53;;
14066;SDS011;7108;42.684;23.350;2022-12-18T00:53:59;211.50;;;75.57;;
14066;SDS011;7108;42.684;23.350;2022-12-18T00:56:25;237.00;;;75.43;;
14066;SDS011;7108;42.684;23.350;2022-12-18T00:58:50;198.73;;;76.90;;
14066;SDS011;7108;42.684;23.350;2022-12-18T01:01:16;204.03;;;77.57;;
14066;SDS011;7108;42.684;23.350;2022-12-18T01:03:42;211.35;;;76.57;;
14066;SDS011;7108;42.684;23.350;2022-12-18T01:06:08;218.57;;;77.73;;
14066;SDS011;7108;42.684;23.350;2022-12-18T01:08:35;220.38;;;76.90;;
14066;SDS011;7108;42.684;23.350;2022-12-18T01:11:06;217.65;;;77.75;;
14066;SDS011;7108;42.684;23.350;2022-12-18T01:13:33;249.77;;;79.22;;
14066;SDS011;7108;42.684;23.350;2022-12-18T01:15:58;194.90;;;76.60;;
14066;SDS011;7108;42.684;23.350;2022-12-18T01:18:24;200.13;;;74.63;;
14066;SDS011;7108;42.684;23.350;2022-12-18T01:20:49;183.13;;;73.80;;
14066;SDS011;7108;42.684;23.350;2022-12-18T01:23:17;196.00;;;75.67;;
14066;SDS011;7108;42.684;23.350;2022-12-18T01:25:43;204.82;;;75.38;;
14066;SDS011;7108;42.684;23.350;2022-12-18T01:28:11;218.65;;;76.80;;
14066;SDS011;7108;42.684;23.350;2022-12-18T01:30:37;219.00;;;79.20;;
14066;SDS011;7108;42.684;23.350;2022-12-18T01:33:04;216.47;;;79.27;;
14066;SDS011;7108;42.684;23.350;2022-12-18T01:35:30;234.88;;;79.60;;
14066;SDS011;7108;42.684;23.350;2022-12-18T01:37:56;205.03;;;76.83;;
14066;SDS011;7108;42.684;23.350;2022-12-18T01:40:21;215.50;;;78.63;;
14066;SDS011;7108;42.684;23.350;2022-12-18T01:42:53;193.10;;;77.33;;
14066;SDS011;7108;42.684;23.350;2022-12-18T01:45:24;192.52;;;77.78;;
14066;SDS011;7108;42.684;23.350;2022-12-18T01:47:56;198.15;;;78.45;;
14066;SDS011;7108;42.684;23.350;2022-12-18T01:50:36;227.43;;;80.32;;
14066;SDS011;7108;42.684;23.350;2022-12-18T01:53:06;205.93;;;78.78;;
14066;SDS011;7108;42.684;23.350;2022-12-18T01:55:54;254.45;;;80.05;;
14066;SDS011;7108;42.684;23.350;2022-12-18T01:58:20;192.20;;;76.53;;
14066;SDS011;7108;42.684;23.350;2022-12-18T02:00:53;192.90;;;76.75;;
14066;SDS011;7108;42.684;23.350;2022-12-18T02:03:19;200.23;;;76.90;;
14066;SDS011;7108;42.684;23.350;2022-12-18T02:08:42;205.90;;;75.38;;
14066;SDS011;7108;42.684;23.350;2022-12-18T02:11:36;222.68;;;81.28;;
14066;SDS011;7108;42.684;23.350;2022-12-18T02:17:11;219.63;;;79.07;;
14066;SDS011;7108;42.684;23.350;2022-12-18T02:22:58;190.10;;;74.00;;
14066;SDS011;7108;42.684;23.350;2022-12-18T02:28:37;201.88;;;77.88;;
14066;SDS011;7108;42.684;23.350;2022-12-18T02:31:08;218.38;;;78.10;;
14066;SDS011;7108;42.684;23.350;2022-12-18T02:33:39;213.32;;;78.20;;
14066;SDS011;7108;42.684;23.350;2022-12-18T02:36:05;209.18;;;76.80;;
14066;SDS011;7108;42.684;23.350;2022-12-18T02:38:33;221.70;;;78.20;;
14066;SDS011;7108;42.684;23.350;2022-12-18T02:40:59;224.27;;;80.40;;
14066;SDS011;7108;42.684;23.350;2022-12-18T02:43:25;229.73;;;80.40;;
14066;SDS011;7108;42.684;23.350;2022-12-18T02:45:55;209.17;;;78.83;;
14066;SDS011;7108;42.684;23.350;2022-12-18T02:48:24;204.88;;;79.03;;
14066;SDS011;7108;42.684;23.350;2022-12-18T02:53:48;214.93;;;76.78;;
14066;SDS011;7108;42.684;23.350;2022-12-18T02:56:30;220.40;;;78.13;;
14066;SDS011;7108;42.684;23.350;2022-12-18T02:59:12;211.55;;;77.18;;
14066;SDS011;7108;42.684;23.350;2022-12-18T03:01:51;195.80;;;76.93;;
14066;SDS011;7108;42.684;23.350;2022-12-18T03:04:26;210.43;;;78.35;;
14066;SDS011;7108;42.684;23.350;2022-12-18T03:06:57;184.00;;;74.80;;
14066;SDS011;7108;42.684;23.350;2022-12-18T03:09:28;225.13;;;79.00;;
14066;SDS011;7108;42.684;23.350;2022-12-18T03:12:09;210.38;;;81.13;;
14066;SDS011;7108;42.684;23.350;2022-12-18T03:14:59;179.60;;;76.22;;
14066;SDS011;7108;42.684;23.350;2022-12-18T03:17:26;220.93;;;77.72;;
14066;SDS011;7108;42.684;23.350;2022-12-18T03:19:55;190.95;;;76.63;;
14066;SDS011;7108;42.684;23.350;2022-12-18T03:22:24;201.93;;;78.43;;
14066;SDS011;7108;42.684;23.350;2022-12-18T03:24:55;188.00;;;77.03;;
14066;SDS011;7108;42.684;23.350;2022-12-18T03:27:22;190.90;;;75.65;;
14066;SDS011;7108;42.684;23.350;2022-12-18T03:29:56;183.93;;;74.13;;
14066;SDS011;7108;42.684;23.350;2022-12-18T03:32:33;241.00;;;80.60;;
14066;SDS011;7108;42.684;23.350;2022-12-18T03:35:07;216.57;;;81.05;;
14066;SDS011;7108;42.684;23.350;2022-12-18T03:37:35;193.05;;;79.05;;
14066;SDS011;7108;42.684;23.350;2022-12-18T03:40:02;210.23;;;82.20;;
14066;SDS011;7108;42.684;23.350;2022-12-18T03:42:45;222.00;;;81.63;;
14066;SDS011;7108;42.684;23.350;2022-12-18T03:45:21;193.15;;;77.07;;
14066;SDS011;7108;42.684;23.350;2022-12-18T03:47:58;203.25;;;78.45;;
14066;SDS011;7108;42.684;23.350;2022-12-18T03:53:27;223.65;;;78.25;;
14066;SDS011;7108;42.684;23.350;2022-12-18T03:56:00;207.52;;;79.70;;
14066;SDS011;7108;42.684;23.350;2022-12-18T03:58:27;233.57;;;78.05;;
14066;SDS011;7108;42.684;23.350;2022-12-18T04:00:56;200.50;;;77.95;;
14066;SDS011;7108;42.684;23.350;2022-12-18T04:03:26;228.68;;;78.40;;
14066;SDS011;7108;42.684;23.350;2022-12-18T04:05:55;196.98;;;78.07;;
14066;SDS011;7108;42.684;23.350;2022-12-18T04:08:22;209.07;;;78.78;;
14066;SDS011;7108;42.684;23.350;2022-12-18T04:10:49;194.07;;;76.15;;
14066;SDS011;7108;42.684;23.350;2022-12-18T04:13:22;187.90;;;75.23;;
14066;SDS011;7108;42.684;23.350;2022-12-18T04:15:49;181.43;;;74.13;;
14066;SDS011;7108;42.684;23.350;2022-12-18T04:18:14;199.20;;;78.10;;
14066;SDS011;7108;42.684;23.350;2022-12-18T04:20:40;195.27;;;76.90;;
14066;SDS011;7108;42.684;23.350;2022-12-18T04:23:05;216.70;;;79.37;;
14066;SDS011;7108;42.684;23.350;2022-12-18T04:25:31;232.43;;;78.53;;
14066;SDS011;7108;42.684;23.350;2022-12-18T04:27:56;213.60;;;79.27;;
14066;SDS011;7108;42.684;23.350;2022-12-18T04:30:21;190.23;;;78.30;;
14066;SDS011;7108;42.684;23.350;2022-12-18T04:32:47;182.00;;;78.03;;
14066;SDS011;7108;42.684;23.350;2022-12-18T04:35:12;191.00;;;76.17;;
14066;SDS011;7108;42.684;23.350;2022-12-18T04:37:37;229.80;;;80.87;;
14066;SDS011;7108;42.684;23.350;2022-12-18T04:40:03;212.73;;;78.43;;
14066;SDS011;7108;42.684;23.350;2022-12-18T04:42:29;235.23;;;80.57;;
14066;SDS011;7108;42.684;23.350;2022-12-18T04:44:54;189.90;;;78.03;;
14066;SDS011;7108;42.684;23.350;2022-12-18T04:47:19;190.10;;;76.83;;
14066;SDS011;7108;42.684;23.350;2022-12-18T04:49:45;189.00;;;76.63;;
14066;SDS011;7108;42.684;23.350;2022-12-18T04:52:10;210.23;;;79.60;;
14066;SDS011;7108;42.684;23.350;2022-12-18T04:54:36;236.27;;;79.63;;
14066;SDS011;7108;42.684;23.350;2022-12-18T04:57:01;213.50;;;80.13;;
14066;SDS011;7108;42.684;23.350;2022-12-18T04:59:27;208.63;;;76.93;;
14066;SDS011;7108;42.684;23.350;2022-12-18T05:01:52;188.37;;;77.03;;
14066;SDS011;7108;42.684;23.350;2022-12-18T05:04:18;181.60;;;74.53;;
14066;SDS011;7108;42.684;23.350;2022-12-18T05:06:43;193.83;;;78.93;;
14066;SDS011;7108;42.684;23.350;2022-12-18T05:09:08;207.23;;;78.00;;
14066;SDS011;7108;42.684;23.350;2022-12-18T05:11:34;205.23;;;79.50;;
14066;SDS011;7108;42.684;23.350;2022-12-18T05:13:59;187.13;;;78.20;;
14066;SDS011;7108;42.684;23.350;2022-12-18T05:16:25;199.37;;;80.03;;
14066;SDS011;7108;42.684;23.350;2022-12-18T05:18:50;193.47;;;77.57;;
14066;SDS011;7108;42.684;23.350;2022-12-18T05:21:15;194.13;;;76.97;;
14066;SDS011;7108;42.684;23.350;2022-12-18T05:23:41;188.70;;;75.73;;
14066;SDS011;7108;42.684;23.350;2022-12-18T05:26:06;194.77;;;78.93;;
14066;SDS011;7108;42.684;23.350;2022-12-18T05:28:33;202.53;;;76.27;;
14066;SDS011;7108;42.684;23.350;2022-12-18T05:31:00;218.77;;;80.75;;
14066;SDS011;7108;42.684;23.350;2022-12-18T05:33:28;197.27;;;78.60;;
14066;SDS011;7108;42.684;23.350;2022-12-18T05:35:58;194.77;;;78.28;;
14066;SDS011;7108;42.684;23.350;2022-12-18T05:38:25;205.38;;;78.57;;
14066;SDS011;7108;42.684;23.350;2022-12-18T05:40:52;187.52;;;77.28;;
14066;SDS011;7108;42.684;23.350;2022-12-18T05:43:20;195.48;;;79.20;;
14066;SDS011;7108;42.684;23.350;2022-12-18T05:45:49;204.07;;;78.97;;
14066;SDS011;7108;42.684;23.350;2022-12-18T05:48:15;187.55;;;76.75;;
14066;SDS011;7108;42.684;23.350;2022-12-18T05:50:44;202.67;;;76.93;;
14066;SDS011;7108;42.684;23.350;2022-12-18T05:53:12;237.27;;;84.85;;
14066;SDS011;7108;42.684;23.350;2022-12-18T05:55:43;238.20;;;81.38;;
14066;SDS011;7108;42.684;23.350;2022-12-18T05:58:09;216.07;;;79.30;;
14066;SDS011;7108;42.684;23.350;2022-12-18T06:00:37;239.02;;;83.05;;
14066;SDS011;7108;42.684;23.350;2022-12-18T06:03:07;229.38;;;83.15;;
14066;SDS011;7108;42.684;23.350;2022-12-18T06:05:37;267.23;;;85.35;;
14066;SDS011;7108;42.684;23.350;2022-12-18T06:08:04;235.80;;;82.40;;
14066;SDS011;7108;42.684;23.350;2022-12-18T06:10:33;258.73;;;82.10;;
14066;SDS011;7108;42.684;23.350;2022-12-18T06:12:59;245.10;;;82.63;;
14066;SDS011;7108;42.684;23.350;2022-12-18T06:15:25;264.70;;;85.82;;
14066;SDS011;7108;42.684;23.350;2022-12-18T06:17:50;193.73;;;77.30;;
14066;SDS011;7108;42.684;23.350;2022-12-18T06:20:16;188.73;;;76.63;;
14066;SDS011;7108;42.684;23.350;2022-12-18T06:22:42;246.20;;;83.50;;
14066;SDS011;7108;42.684;23.350;2022-12-18T06:25:07;270.30;;;98.30;;
14066;SDS011;7108;42.684;23.350;2022-12-18T06:27:33;277.20;;;86.87;;
14066;SDS011;7108;42.684;23.350;2022-12-18T06:29:59;229.93;;;83.43;;
14066;SDS011;7108;42.684;23.350;2022-12-18T06:32:25;251.65;;;83.93;;
14066;SDS011;7108;42.684;23.350;2022-12-18T06:34:51;231.90;;;81.27;;
14066;SDS011;7108;42.684;23.350;2022-12-18T06:37:16;203.50;;;82.03;;
14066;SDS011;7108;42.684;23.350;2022-12-18T06:39:55;228.33;;;79.10;;
14066;SDS011;7108;42.684;23.350;2022-12-18T06:42:21;239.30;;;82.15;;
14066;SDS011;7108;42.684;23.350;2022-12-18T06:44:47;228.47;;;81.23;;
14066;SDS011;7108;42.684;23.350;2022-12-18T06:47:12;240.07;;;82.57;;
14066;SDS011;7108;42.684;23.350;2022-12-18T06:49:38;244.80;;;82.40;;
14066;SDS011;7108;42.684;23.350;2022-12-18T06:52:03;258.97;;;84.30;;
14066;SDS011;7108;42.684;23.350;2022-12-18T06:54:29;246.80;;;83.70;;
14066;SDS011;7108;42.684;23.350;2022-12-18T06:56:55;224.80;;;80.10;;
14066;SDS011;7108;42.684;23.350;2022-12-18T06:59:24;269.80;;;84.75;;
14066;SDS011;7108;42.684;23.350;2022-12-18T07:01:49;234.77;;;82.25;;
14066;SDS011;7108;42.684;23.350;2022-12-18T07:04:15;227.27;;;80.30;;
14066;SDS011;7108;42.684;23.350;2022-12-18T07:06:40;257.97;;;85.23;;
14066;SDS011;7108;42.684;23.350;2022-12-18T07:09:06;244.60;;;84.27;;
14066;SDS011;7108;42.684;23.350;2022-12-18T07:11:35;267.07;;;86.93;;
14066;SDS011;7108;42.684;23.350;2022-12-18T07:14:03;254.90;;;83.70;;
14066;SDS011;7108;42.684;23.350;2022-12-18T07:16:31;288.15;;;85.85;;
14066;SDS011;7108;42.684;23.350;2022-12-18T07:18:57;235.43;;;82.63;;
14066;SDS011;7108;42.684;23.350;2022-12-18T07:21:23;234.77;;;82.53;;
14066;SDS011;7108;42.684;23.350;2022-12-18T07:23:49;201.73;;;77.03;;
14066;SDS011;7108;42.684;23.350;2022-12-18T07:26:16;207.17;;;76.83;;
14066;SDS011;7108;42.684;23.350;2022-12-18T07:28:43;218.73;;;79.72;;
14066;SDS011;7108;42.684;23.350;2022-12-18T07:31:10;348.97;;;102.10;;
14066;SDS011;7108;42.684;23.350;2022-12-18T07:33:38;329.52;;;92.57;;
14066;SDS011;7108;42.684;23.350;2022-12-18T07:36:06;249.43;;;82.43;;
14066;SDS011;7108;42.684;23.350;2022-12-18T07:38:33;289.33;;;86.10;;
14066;SDS011;7108;42.684;23.350;2022-12-18T07:41:03;259.20;;;85.25;;
14066;SDS011;7108;42.684;23.350;2022-12-18T07:43:33;221.55;;;80.50;;
14066;SDS011;7108;42.684;23.350;2022-12-18T07:45:59;289.35;;;90.15;;
14066;SDS011;7108;42.684;23.350;2022-12-18T07:48:25;244.40;;;82.77;;
14066;SDS011;7108;42.684;23.350;2022-12-18T07:50:51;249.23;;;84.78;;
14066;SDS011;7108;42.684;23.350;2022-12-18T07:53:17;262.15;;;88.50;;
14066;SDS011;7108;42.684;23.350;2022-12-18T07:55:43;225.67;;;81.80;;
14066;SDS011;7108;42.684;23.350;2022-12-18T07:58:08;217.27;;;81.03;;
14066;SDS011;7108;42.684;23.350;2022-12-18T08:00:34;269.57;;;84.63;;
14066;SDS011;7108;42.684;23.350;2022-12-18T08:03:03;212.35;;;79.72;;
14066;SDS011;7108;42.684;23.350;2022-12-18T08:05:28;247.23;;;83.70;;
14066;SDS011;7108;42.684;23.350;2022-12-18T08:07:54;202.87;;;79.23;;
14066;SDS011;7108;42.684;23.350;2022-12-18T08:10:19;200.07;;;79.53;;
14066;SDS011;7108;42.684;23.350;2022-12-18T08:12:45;197.07;;;77.03;;
14066;SDS011;7108;42.684;23.350;2022-12-18T08:15:14;196.05;;;78.78;;
14066;SDS011;7108;42.684;23.350;2022-12-18T08:17:40;221.07;;;81.30;;
14066;SDS011;7108;42.684;23.350;2022-12-18T08:20:05;229.87;;;83.07;;
14066;SDS011;7108;42.684;23.350;2022-12-18T08:22:35;240.10;;;84.18;;
14066;SDS011;7108;42.684;23.350;2022-12-18T08:25:04;221.73;;;81.13;;
14066;SDS011;7108;42.684;23.350;2022-12-18T08:27:30;245.05;;;80.97;;
14066;SDS011;7108;42.684;23.350;2022-12-18T08:29:56;210.17;;;79.10;;
14066;SDS011;7108;42.684;23.350;2022-12-18T08:32:22;200.70;;;79.57;;
14066;SDS011;7108;42.684;23.350;2022-12-18T08:34:48;208.93;;;80.97;;
14066;SDS011;7108;42.684;23.350;2022-12-18T08:37:13;202.67;;;80.37;;
14066;SDS011;7108;42.684;23.350;2022-12-18T08:39:38;231.20;;;81.10;;
14066;SDS011;7108;42.684;23.350;2022-12-18T08:42:04;223.47;;;80.93;;
14066;SDS011;7108;42.684;23.350;2022-12-18T08:44:48;196.88;;;77.53;;
14066;SDS011;7108;42.684;23.350;2022-12-18T08:47:13;237.47;;;82.57;;
14066;SDS011;7108;42.684;23.350;2022-12-18T08:49:38;232.33;;;80.60;;
14066;SDS011;7108;42.684;23.350;2022-12-18T08:52:04;213.03;;;79.83;;
14066;SDS011;7108;42.684;23.350;2022-12-18T08:54:35;193.43;;;76.88;;
14066;SDS011;7108;42.684;23.350;2022-12-18T08:57:00;218.57;;;79.30;;
14066;SDS011;7108;42.684;23.350;2022-12-18T08:59:26;242.70;;;81.37;;
14066;SDS011;7108;42.684;23.350;2022-12-18T09:01:53;214.83;;;85.20;;
14066;SDS011;7108;42.684;23.350;2022-12-18T09:04:20;198.05;;;76.68;;
14066;SDS011;7108;42.684;23.350;2022-12-18T09:06:45;193.23;;;77.07;;
14066;SDS011;7108;42.684;23.350;2022-12-18T09:09:11;239.10;;;81.27;;
14066;SDS011;7108;42.684;23.350;2022-12-18T09:11:37;200.30;;;79.15;;
14066;SDS011;7108;42.684;23.350;2022-12-18T09:14:02;223.77;;;82.07;;
14066;SDS011;7108;42.684;23.350;2022-12-18T09:16:28;219.00;;;79.20;;
14066;SDS011;7108;42.684;23.350;2022-12-18T09:18:54;202.38;;;79.80;;
14066;SDS011;7108;42.684;23.350;2022-12-18T09:21:24;223.35;;;80.93;;
14066;SDS011;7108;42.684;23.350;2022-12-18T09:23:52;199.70;;;78.80;;
14066;SDS011;7108;42.684;23.350;2022-12-18T09:26:19;206.68;;;79.20;;
14066;SDS011;7108;42.684;23.350;2022-12-18T09:28:46;196.65;;;79.03;;
14066;SDS011;7108;42.684;23.350;2022-12-18T09:31:12;197.87;;;79.80;;
14066;SDS011;7108;42.684;23.350;2022-12-18T09:33:38;234.30;;;84.07;;
14066;SDS011;7108;42.684;23.350;2022-12-18T09:36:05;202.97;;;80.27;;
14066;SDS011;7108;42.684;23.350;2022-12-18T09:38:32;255.80;;;89.22;;
14066;SDS011;7108;42.684;23.350;2022-12-18T09:44:12;213.90;;;82.80;;
14066;SDS011;7108;42.684;23.350;2022-12-18T09:46:45;250.95;;;85.35;;
14066;SDS011;7108;42.684;23.350;2022-12-18T09:49:16;252.52;;;85.55;;
14066;SDS011;7108;42.684;23.350;2022-12-18T09:51:47;239.15;;;82.80;;
14066;SDS011;7108;42.684;23.350;2022-12-18T09:54:22;248.68;;;82.85;;
14066;SDS011;7108;42.684;23.350;2022-12-18T09:56:54;228.55;;;83.53;;
14066;SDS011;7108;42.684;23.350;2022-12-18T09:59:34;235.47;;;86.23;;
14066;SDS011;7108;42.684;23.350;2022-12-18T10:02:19;250.20;;;85.32;;
14066;SDS011;7108;42.684;23.350;2022-12-18T10:04:49;229.95;;;83.53;;
14066;SDS011;7108;42.684;23.350;2022-12-18T10:07:38;222.27;;;81.97;;
14066;SDS011;7108;42.684;23.350;2022-12-18T10:20:55;247.85;;;83.97;;
14066;SDS011;7108;42.684;23.350;2022-12-18T10:23:33;270.35;;;85.22;;
14066;SDS011;7108;42.684;23.350;2022-12-18T10:26:03;248.77;;;82.65;;
14066;SDS011;7108;42.684;23.350;2022-12-18T10:28:32;282.08;;;87.47;;
14066;SDS011;7108;42.684;23.350;2022-12-18T10:31:00;255.57;;;85.43;;
14066;SDS011;7108;42.684;23.350;2022-12-18T10:33:30;313.53;;;99.10;;
14066;SDS011;7108;42.684;23.350;2022-12-18T10:35:56;266.55;;;93.03;;
14066;SDS011;7108;42.684;23.350;2022-12-18T10:38:23;218.67;;;82.37;;
14066;SDS011;7108;42.684;23.350;2022-12-18T10:40:53;247.27;;;86.50;;
14066;SDS011;7108;42.684;23.350;2022-12-18T10:56:29;285.25;;;89.13;;
14066;SDS011;7108;42.684;23.350;2022-12-18T10:59:00;246.40;;;84.60;;
14066;SDS011;7108;42.684;23.350;2022-12-18T11:01:50;259.23;;;85.82;;
14066;SDS011;7108;42.684;23.350;2022-12-18T11:04:18;220.38;;;82.43;;
14066;SDS011;7108;42.684;23.350;2022-12-18T11:07:04;221.77;;;82.75;;
14066;SDS011;7108;42.684;23.350;2022-12-18T11:09:36;248.98;;;85.72;;
14066;SDS011;7108;42.684;23.350;2022-12-18T11:12:05;261.52;;;85.63;;
14066;SDS011;7108;42.684;23.350;2022-12-18T11:14:46;276.15;;;87.88;;
14066;SDS011;7108;42.684;23.350;2022-12-18T11:17:23;209.73;;;96.00;;
14066;SDS011;7108;42.684;23.350;2022-12-18T11:19:56;242.95;;;85.40;;
14066;SDS011;7108;42.684;23.350;2022-12-18T11:22:27;237.05;;;83.10;;
14066;SDS011;7108;42.684;23.350;2022-12-18T11:24:58;240.60;;;83.05;;
14066;SDS011;7108;42.684;23.350;2022-12-18T11:27:26;250.77;;;84.90;;
14066;SDS011;7108;42.684;23.350;2022-12-18T11:30:06;241.55;;;82.40;;
14066;SDS011;7108;42.684;23.350;2022-12-18T11:33:20;236.27;;;84.80;;
14066;SDS011;7108;42.684;23.350;2022-12-18T11:38:26;227.70;;;82.70;;
14066;SDS011;7108;42.684;23.350;2022-12-18T11:40:56;229.80;;;79.80;;
14066;SDS011;7108;42.684;23.350;2022-12-18T11:46:07;280.48;;;89.18;;
14066;SDS011;7108;42.684;23.350;2022-12-18T11:48:50;280.08;;;87.47;;
14066;SDS011;7108;42.684;23.350;2022-12-18T11:51:31;254.10;;;84.70;;
14066;SDS011;7108;42.684;23.350;2022-12-18T11:54:15;297.88;;;89.40;;
14066;SDS011;7108;42.684;23.350;2022-12-18T12:07:52;289.85;;;89.10;;
14066;SDS011;7108;42.684;23.350;2022-12-18T12:15:58;257.40;;;86.68;;
14066;SDS011;7108;42.684;23.350;2022-12-18T12:30:24;204.95;;;79.18;;
14066;SDS011;7108;42.684;23.350;2022-12-18T12:33:18;252.93;;;84.18;;
14066;SDS011;7108;42.684;23.350;2022-12-18T12:38:43;254.73;;;83.28;;
14066;SDS011;7108;42.684;23.350;2022-12-18T12:41:16;212.80;;;77.70;;
14066;SDS011;7108;42.684;23.350;2022-12-18T12:44:05;240.20;;;85.40;;
14066;SDS011;7108;42.684;23.350;2022-12-18T12:46:35;258.27;;;84.47;;
14066;SDS011;7108;42.684;23.350;2022-12-18T12:49:09;239.27;;;85.50;;
14066;SDS011;7108;42.684;23.350;2022-12-18T12:51:40;287.42;;;98.53;;
14066;SDS011;7108;42.684;23.350;2022-12-18T12:54:19;238.65;;;89.85;;
14066;SDS011;7108;42.684;23.350;2022-12-18T12:56:56;213.25;;;78.68;;
14066;SDS011;7108;42.684;23.350;2022-12-18T13:02:34;225.43;;;81.80;;
14066;SDS011;7108;42.684;23.350;2022-12-18T13:08:07;232.02;;;83.65;;
14066;SDS011;7108;42.684;23.350;2022-12-18T13:10:50;211.73;;;82.55;;
14066;SDS011;7108;42.684;23.350;2022-12-18T13:13:52;255.93;;;85.90;;
14066;SDS011;7108;42.684;23.350;2022-12-18T13:16:23;225.18;;;82.20;;
14066;SDS011;7108;42.684;23.350;2022-12-18T13:18:54;205.20;;;79.25;;
14066;SDS011;7108;42.684;23.350;2022-12-18T13:23:54;221.35;;;82.20;;
14066;SDS011;7108;42.684;23.350;2022-12-18T13:28:50;214.23;;;82.88;;
14066;SDS011;7108;42.684;23.350;2022-12-18T13:36:46;227.90;;;82.28;;
14066;SDS011;7108;42.684;23.350;2022-12-18T13:41:44;218.05;;;79.75;;
14066;SDS011;7108;42.684;23.350;2022-12-18T13:46:58;223.40;;;80.68;;
14066;SDS011;7108;42.684;23.350;2022-12-18T13:49:26;232.75;;;83.60;;
14066;SDS011;7108;42.684;23.350;2022-12-18T13:52:01;234.70;;;82.22;;
14066;SDS011;7108;42.684;23.350;2022-12-18T13:57:04;235.35;;;83.65;;
14066;SDS011;7108;42.684;23.350;2022-12-18T13:59:37;270.23;;;83.22;;
14066;SDS011;7108;42.684;23.350;2022-12-18T14:02:16;223.38;;;82.97;;
14066;SDS011;7108;42.684;23.350;2022-12-18T14:04:46;202.10;;;78.93;;
14066;SDS011;7108;42.684;23.350;2022-12-18T14:07:13;204.38;;;78.20;;
14066;SDS011;7108;42.684;23.350;2022-12-18T14:09:45;227.38;;;79.57;;
14066;SDS011;7108;42.684;23.350;2022-12-18T14:12:24;208.50;;;78.25;;
14066;SDS011;7108;42.684;23.350;2022-12-18T14:17:51;188.40;;;75.53;;
14066;SDS011;7108;42.684;23.350;2022-12-18T14:20:25;210.05;;;80.47;;
14066;SDS011;7108;42.684;23.350;2022-12-18T14:22:51;205.25;;;79.65;;
14066;SDS011;7108;42.684;23.350;2022-12-18T14:25:22;206.63;;;77.80;;
14066;SDS011;7108;42.684;23.350;2022-12-18T14:30:36;250.32;;;80.53;;
14066;SDS011;7108;42.684;23.350;2022-12-18T14:33:06;229.93;;;80.63;;
14066;SDS011;7108;42.684;23.350;2022-12-18T14:38:33;245.82;;;80.43;;
14066;SDS011;7108;42.684;23.350;2022-12-18T14:43:36;246.38;;;78.85;;
14066;SDS011;7108;42.684;23.350;2022-12-18T14:46:03;227.75;;;82.47;;
14066;SDS011;7108;42.684;23.350;2022-12-18T14:51:16;217.73;;;76.93;;
14066;SDS011;7108;42.684;23.350;2022-12-18T14:53:47;263.42;;;85.55;;
14066;SDS011;7108;42.684;23.350;2022-12-18T14:56:24;210.57;;;79.32;;
14066;SDS011;7108;42.684;23.350;2022-12-18T14:58:55;205.25;;;77.80;;
14066;SDS011;7108;42.684;23.350;2022-12-18T15:03:53;212.73;;;79.15;;
14066;SDS011;7108;42.684;23.350;2022-12-18T15:08:51;245.02;;;84.63;;
14066;SDS011;7108;42.684;23.350;2022-12-18T15:11:32;270.95;;;87.05;;
14066;SDS011;7108;42.684;23.350;2022-12-18T15:16:57;261.40;;;84.30;;
14066;SDS011;7108;42.684;23.350;2022-12-18T15:19:40;316.73;;;97.63;;
14066;SDS011;7108;42.684;23.350;2022-12-18T15:24:51;265.27;;;85.68;;
14066;SDS011;7108;42.684;23.350;2022-12-18T15:32:34;290.33;;;87.07;;
14066;SDS011;7108;42.684;23.350;2022-12-18T15:35:22;257.08;;;86.32;;
14066;SDS011;7108;42.684;23.350;2022-12-18T15:37:48;250.18;;;83.10;;
14066;SDS011;7108;42.684;23.350;2022-12-18T15:40:18;257.10;;;84.97;;
14066;SDS011;7108;42.684;23.350;2022-12-18T15:42:45;245.93;;;82.38;;
14066;SDS011;7108;42.684;23.350;2022-12-18T15:45:30;281.55;;;85.93;;
14066;SDS011;7108;42.684;23.350;2022-12-18T15:47:56;253.53;;;84.33;;
14066;SDS011;7108;42.684;23.350;2022-12-18T15:50:21;235.27;;;78.83;;
14066;SDS011;7108;42.684;23.350;2022-12-18T15:52:48;245.07;;;82.47;;
14066;SDS011;7108;42.684;23.350;2022-12-18T15:55:17;235.20;;;81.97;;
14066;SDS011;7108;42.684;23.350;2022-12-18T15:58:06;241.75;;;81.55;;
14066;SDS011;7108;42.684;23.350;2022-12-18T16:00:34;277.48;;;82.20;;
14066;SDS011;7108;42.684;23.350;2022-12-18T16:03:01;252.00;;;82.25;;
14066;SDS011;7108;42.684;23.350;2022-12-18T16:05:27;248.70;;;85.37;;
14066;SDS011;7108;42.684;23.350;2022-12-18T16:07:53;253.25;;;82.75;;
14066;SDS011;7108;42.684;23.350;2022-12-18T16:10:18;232.43;;;80.10;;
14066;SDS011;7108;42.684;23.350;2022-12-18T16:12:44;254.20;;;82.27;;
14066;SDS011;7108;42.684;23.350;2022-12-18T16:15:10;269.87;;;83.77;;
14066;SDS011;7108;42.684;23.350;2022-12-18T16:17:39;295.23;;;88.15;;
14066;SDS011;7108;42.684;23.350;2022-12-18T16:20:05;246.60;;;81.15;;
14066;SDS011;7108;42.684;23.350;2022-12-18T16:22:36;292.98;;;84.80;;
14066;SDS011;7108;42.684;23.350;2022-12-18T16:25:02;275.73;;;86.80;;
14066;SDS011;7108;42.684;23.350;2022-12-18T16:27:27;294.10;;;89.57;;
14066;SDS011;7108;42.684;23.350;2022-12-18T16:29:53;273.83;;;86.20;;
14066;SDS011;7108;42.684;23.350;2022-12-18T16:32:19;227.67;;;79.87;;
14066;SDS011;7108;42.684;23.350;2022-12-18T16:34:46;244.48;;;82.07;;
14066;SDS011;7108;42.684;23.350;2022-12-18T16:37:13;271.88;;;85.38;;
14066;SDS011;7108;42.684;23.350;2022-12-18T16:39:40;306.25;;;90.40;;